sensor_id;sensor_type;location;lat;lon;timestamp;pressure;altitude;pressure_sealevel;temperature;humidity
58668;BME280;59852;43.086;25.634;2023-02-02T00:01:23;98814.56;;;2.76;68.92
58668;BME280;59852;43.086;25.634;2023-02-02T00:03:49;98819.31;;;2.63;69.37
58668;BME280;59852;43.086;25.634;2023-02-02T00:06:18;98804.19;;;2.54;69.58
58668;BME280;59852;43.086;25.634;2023-02-02T00:08:43;98817.44;;;2.45;70.08
58668;BME280;59852;43.086;25.634;2023-02-02T00:11:09;98812.38;;;2.42;71.11
58668;BME280;59852;43.086;25.634;2023-02-02T00:13:34;98825.84;;;2.50;71.32
58668;BME280;59852;43.086;25.634;2023-02-02T00:18:44;98820.81;;;2.47;71.19
58668;BME280;59852;43.086;25.634;2023-02-02T00:21:09;98822.25;;;2.54;71.81
58668;BME280;59852;43.086;25.634;2023-02-02T00:23:34;98819.22;;;2.66;70.84
58668;BME280;59852;43.086;25.634;2023-02-02T00:26:00;98830.94;;;2.75;69.54
58668;BME280;59852;43.086;25.634;2023-02-02T00:28:25;98825.66;;;2.78;68.26
58668;BME280;59852;43.086;25.634;2023-02-02T00:30:50;98819.31;;;2.86;67.96
58668;BME280;59852;43.086;25.634;2023-02-02T00:33:16;98827.22;;;2.82;67.90
58668;BME280;59852;43.086;25.634;2023-02-02T00:35:41;98824.88;;;2.76;68.13
58668;BME280;59852;43.086;25.634;2023-02-02T00:38:06;98833.31;;;2.34;70.58
58668;BME280;59852;43.086;25.634;2023-02-02T00:40:32;98830.56;;;2.62;71.24
58668;BME280;59852;43.086;25.634;2023-02-02T00:42:57;98831.88;;;2.72;69.74
58668;BME280;59852;43.086;25.634;2023-02-02T00:45:22;98841.22;;;2.98;67.15
58668;BME280;59852;43.086;25.634;2023-02-02T00:47:49;98845.84;;;2.90;67.89
58668;BME280;59852;43.086;25.634;2023-02-02T00:50:16;98843.13;;;2.93;67.62
58668;BME280;59852;43.086;25.634;2023-02-02T00:52:41;98849.81;;;2.99;68.02
58668;BME280;59852;43.086;25.634;2023-02-02T00:55:07;98851.38;;;3.03;66.55
58668;BME280;59852;43.086;25.634;2023-02-02T00:57:33;98841.16;;;3.00;66.24
58668;BME280;59852;43.086;25.634;2023-02-02T00:59:58;98836.66;;;2.83;67.30
58668;BME280;59852;43.086;25.634;2023-02-02T01:02:24;98835.94;;;3.01;67.58
58668;BME280;59852;43.086;25.634;2023-02-02T01:04:49;98826.25;;;2.84;67.90
58668;BME280;59852;43.086;25.634;2023-02-02T01:07:14;98831.59;;;3.02;67.76
58668;BME280;59852;43.086;25.634;2023-02-02T01:09:40;98827.13;;;3.07;67.34
58668;BME280;59852;43.086;25.634;2023-02-02T01:12:05;98827.69;;;3.13;66.07
58668;BME280;59852;43.086;25.634;2023-02-02T01:14:30;98832.16;;;3.10;66.78
58668;BME280;59852;43.086;25.634;2023-02-02T01:16:56;98831.50;;;3.05;66.88
58668;BME280;59852;43.086;25.634;2023-02-02T01:19:21;98834.13;;;3.03;67.18
58668;BME280;59852;43.086;25.634;2023-02-02T01:21:47;98838.34;;;3.06;67.35
58668;BME280;59852;43.086;25.634;2023-02-02T01:24:12;98837.72;;;3.21;64.49
58668;BME280;59852;43.086;25.634;2023-02-02T01:26:38;98836.72;;;3.03;67.18
58668;BME280;59852;43.086;25.634;2023-02-02T01:29:03;98845.50;;;2.99;67.05
58668;BME280;59852;43.086;25.634;2023-02-02T01:31:29;98839.28;;;3.03;66.60
58668;BME280;59852;43.086;25.634;2023-02-02T01:33:54;98847.47;;;3.14;66.79
58668;BME280;59852;43.086;25.634;2023-02-02T01:36:20;98831.19;;;3.12;67.50
58668;BME280;59852;43.086;25.634;2023-02-02T01:38:46;98836.41;;;3.11;67.58
58668;BME280;59852;43.086;25.634;2023-02-02T01:41:13;98832.72;;;2.96;67.49
58668;BME280;59852;43.086;25.634;2023-02-02T01:46:20;98828.44;;;2.95;68.44
58668;BME280;59852;43.086;25.634;2023-02-02T01:48:47;98829.81;;;2.82;69.54
58668;BME280;59852;43.086;25.634;2023-02-02T01:51:15;98819.81;;;2.73;69.36
58668;BME280;59852;43.086;25.634;2023-02-02T01:53:41;98819.94;;;2.70;69.84
58668;BME280;59852;43.086;25.634;2023-02-02T01:56:08;98821.00;;;2.64;69.54
58668;BME280;59852;43.086;25.634;2023-02-02T01:58:35;98829.38;;;2.71;69.66
58668;BME280;59852;43.086;25.634;2023-02-02T02:01:02;98830.06;;;2.52;70.14
58668;BME280;59852;43.086;25.634;2023-02-02T02:03:28;98817.72;;;2.61;69.71
58668;BME280;59852;43.086;25.634;2023-02-02T02:08:32;98832.72;;;2.51;70.08
58668;BME280;59852;43.086;25.634;2023-02-02T02:10:59;98827.31;;;2.57;70.63
58668;BME280;59852;43.086;25.634;2023-02-02T02:13:25;98822.94;;;2.59;70.26
58668;BME280;59852;43.086;25.634;2023-02-02T02:21:38;98820.72;;;2.72;70.06
58668;BME280;59852;43.086;25.634;2023-02-02T02:27:37;98817.50;;;2.67;70.22
58668;BME280;59852;43.086;25.634;2023-02-02T02:33:19;98819.03;;;2.71;70.39
58668;BME280;59852;43.086;25.634;2023-02-02T02:40:33;98813.88;;;2.93;69.39
58668;BME280;59852;43.086;25.634;2023-02-02T02:43:01;98818.22;;;2.92;69.57
58668;BME280;59852;43.086;25.634;2023-02-02T02:45:29;98819.47;;;2.82;69.43
58668;BME280;59852;43.086;25.634;2023-02-02T02:47:56;98816.81;;;2.83;69.21
58668;BME280;59852;43.086;25.634;2023-02-02T02:50:21;98825.72;;;2.76;69.38
58668;BME280;59852;43.086;25.634;2023-02-02T02:52:47;98819.34;;;2.85;69.65
58668;BME280;59852;43.086;25.634;2023-02-02T02:55:14;98823.25;;;2.73;69.56
58668;BME280;59852;43.086;25.634;2023-02-02T02:57:42;98814.16;;;2.63;69.92
58668;BME280;59852;43.086;25.634;2023-02-02T03:02:37;98822.25;;;2.54;71.04
58668;BME280;59852;43.086;25.634;2023-02-02T03:07:35;98822.03;;;2.60;71.19
58668;BME280;59852;43.086;25.634;2023-02-02T03:10:03;98820.81;;;2.47;72.11
58668;BME280;59852;43.086;25.634;2023-02-02T03:12:30;98811.66;;;2.62;71.76
58668;BME280;59852;43.086;25.634;2023-02-02T03:14:55;98814.34;;;2.58;71.51
58668;BME280;59852;43.086;25.634;2023-02-02T03:17:20;98810.22;;;2.76;70.93
58668;BME280;59852;43.086;25.634;2023-02-02T03:19:46;98823.78;;;2.81;71.14
58668;BME280;59852;43.086;25.634;2023-02-02T03:22:11;98811.97;;;2.76;71.62
58668;BME280;59852;43.086;25.634;2023-02-02T03:24:36;98817.97;;;2.76;71.39
58668;BME280;59852;43.086;25.634;2023-02-02T03:27:02;98817.50;;;2.88;71.08
58668;BME280;59852;43.086;25.634;2023-02-02T03:29:27;98823.03;;;2.79;71.30
58668;BME280;59852;43.086;25.634;2023-02-02T03:31:53;98821.56;;;2.72;72.09
58668;BME280;59852;43.086;25.634;2023-02-02T03:34:18;98822.47;;;2.71;71.83
58668;BME280;59852;43.086;25.634;2023-02-02T03:36:43;98822.19;;;2.79;71.29
58668;BME280;59852;43.086;25.634;2023-02-02T03:39:09;98819.03;;;2.71;71.66
58668;BME280;59852;43.086;25.634;2023-02-02T03:41:34;98825.75;;;2.75;71.16
58668;BME280;59852;43.086;25.634;2023-02-02T03:43:59;98818.41;;;2.64;71.60
58668;BME280;59852;43.086;25.634;2023-02-02T03:46:25;98814.25;;;2.83;70.71
58668;BME280;59852;43.086;25.634;2023-02-02T03:48:50;98822.13;;;2.80;71.04
58668;BME280;59852;43.086;25.634;2023-02-02T03:51:16;98820.72;;;2.72;71.52
58668;BME280;59852;43.086;25.634;2023-02-02T03:53:41;98817.78;;;2.59;71.75
58668;BME280;59852;43.086;25.634;2023-02-02T03:56:11;98807.88;;;2.70;71.29
58668;BME280;59852;43.086;25.634;2023-02-02T03:58:37;98815.34;;;2.78;70.60
58668;BME280;59852;43.086;25.634;2023-02-02T04:01:03;98819.09;;;2.69;71.01
58668;BME280;59852;43.086;25.634;2023-02-02T04:03:29;98807.75;;;2.73;70.43
58668;BME280;59852;43.086;25.634;2023-02-02T04:05:54;98803.84;;;2.63;71.43
58668;BME280;59852;43.086;25.634;2023-02-02T04:08:19;98805.41;;;2.67;71.16
58668;BME280;59852;43.086;25.634;2023-02-02T04:10:45;98808.09;;;2.64;70.83
58668;BME280;59852;43.086;25.634;2023-02-02T04:13:10;98802.28;;;2.59;70.97
58668;BME280;59852;43.086;25.634;2023-02-02T04:15:35;98807.31;;;2.62;71.08
58668;BME280;59852;43.086;25.634;2023-02-02T04:18:01;98808.16;;;2.63;70.29
58668;BME280;59852;43.086;25.634;2023-02-02T04:20:26;98814.28;;;2.60;70.51
58668;BME280;59852;43.086;25.634;2023-02-02T04:22:52;98809.13;;;2.60;70.98
58668;BME280;59852;43.086;25.634;2023-02-02T04:25:18;98805.50;;;2.64;70.50
58668;BME280;59852;43.086;25.634;2023-02-02T04:27:43;98815.06;;;2.62;70.50
58668;BME280;59852;43.086;25.634;2023-02-02T04:30:09;98813.59;;;2.55;70.78
58668;BME280;59852;43.086;25.634;2023-02-02T04:32:34;98808.34;;;2.58;70.80
58668;BME280;59852;43.086;25.634;2023-02-02T04:34:59;98823.41;;;2.47;71.46
58668;BME280;59852;43.086;25.634;2023-02-02T04:37:25;98816.66;;;2.66;70.54
58668;BME280;59852;43.086;25.634;2023-02-02T04:39:50;98806.41;;;2.63;70.21
58668;BME280;59852;43.086;25.634;2023-02-02T04:42:15;98820.06;;;2.67;70.19
58668;BME280;59852;43.086;25.634;2023-02-02T04:44:41;98815.69;;;2.69;69.66
58668;BME280;59852;43.086;25.634;2023-02-02T04:47:08;98816.88;;;2.60;70.08
58668;BME280;59852;43.086;25.634;2023-02-02T04:49:33;98814.69;;;2.49;70.09
58668;BME280;59852;43.086;25.634;2023-02-02T04:51:58;98819.78;;;2.51;70.07
58668;BME280;59852;43.086;25.634;2023-02-02T04:54:23;98814.41;;;2.57;70.10
58668;BME280;59852;43.086;25.634;2023-02-02T04:56:49;98819.50;;;2.58;69.88
58668;BME280;59852;43.086;25.634;2023-02-02T04:59:14;98818.31;;;2.67;70.09
58668;BME280;59852;43.086;25.634;2023-02-02T05:01:39;98825.88;;;2.72;69.30
58668;BME280;59852;43.086;25.634;2023-02-02T05:04:05;98830.81;;;2.56;69.35
58668;BME280;59852;43.086;25.634;2023-02-02T05:06:30;98836.59;;;2.39;69.95
58668;BME280;59852;43.086;25.634;2023-02-02T05:08:55;98837.59;;;2.58;69.35
58668;BME280;59852;43.086;25.634;2023-02-02T05:11:21;98846.78;;;2.42;69.78
58668;BME280;59852;43.086;25.634;2023-02-02T05:13:48;98841.50;;;2.45;70.15
58668;BME280;59852;43.086;25.634;2023-02-02T05:16:13;98838.50;;;2.57;69.39
58668;BME280;59852;43.086;25.634;2023-02-02T05:18:40;98840.91;;;2.39;70.56
58668;BME280;59852;43.086;25.634;2023-02-02T05:21:05;98833.16;;;2.39;70.18
58668;BME280;59852;43.086;25.634;2023-02-02T05:23:30;98837.19;;;2.46;69.60
58668;BME280;59852;43.086;25.634;2023-02-02T05:25:56;98829.75;;;2.38;69.79
58668;BME280;59852;43.086;25.634;2023-02-02T05:28:21;98844.00;;;2.48;68.62
58668;BME280;59852;43.086;25.634;2023-02-02T05:30:47;98841.56;;;2.44;68.93
58668;BME280;59852;43.086;25.634;2023-02-02T05:33:13;98835.72;;;2.62;68.18
58668;BME280;59852;43.086;25.634;2023-02-02T05:35:38;98847.06;;;2.58;68.40
58668;BME280;59852;43.086;25.634;2023-02-02T05:38:04;98850.53;;;2.80;66.95
58668;BME280;59852;43.086;25.634;2023-02-02T05:40:29;98850.94;;;2.70;68.35
58668;BME280;59852;43.086;25.634;2023-02-02T05:42:54;98858.47;;;2.76;67.55
58668;BME280;59852;43.086;25.634;2023-02-02T05:45:20;98861.88;;;2.76;67.33
58668;BME280;59852;43.086;25.634;2023-02-02T05:47:45;98868.84;;;4.02;65.20
58668;BME280;59852;43.086;25.634;2023-02-02T05:50:11;98863.09;;;4.16;62.81
58668;BME280;59852;43.086;25.634;2023-02-02T05:52:36;98868.19;;;3.57;65.07
58668;BME280;59852;43.086;25.634;2023-02-02T05:55:04;98868.94;;;4.78;61.98
58668;BME280;59852;43.086;25.634;2023-02-02T05:57:29;98856.47;;;5.05;60.02
58668;BME280;59852;43.086;25.634;2023-02-02T05:59:54;98861.59;;;4.87;60.65
58668;BME280;59852;43.086;25.634;2023-02-02T06:02:20;98857.69;;;4.21;61.34
58668;BME280;59852;43.086;25.634;2023-02-02T06:04:45;98867.25;;;4.39;62.33
58668;BME280;59852;43.086;25.634;2023-02-02T06:07:10;98862.63;;;4.46;60.43
58668;BME280;59852;43.086;25.634;2023-02-02T06:09:36;98855.16;;;4.19;63.05
58668;BME280;59852;43.086;25.634;2023-02-02T06:12:01;98856.81;;;4.01;62.90
58668;BME280;59852;43.086;25.634;2023-02-02T06:14:27;98848.94;;;4.05;62.82
58668;BME280;59852;43.086;25.634;2023-02-02T06:16:52;98849.41;;;4.13;62.88
58668;BME280;59852;43.086;25.634;2023-02-02T06:19:17;98845.22;;;4.68;61.17
58668;BME280;59852;43.086;25.634;2023-02-02T06:21:43;98847.22;;;4.61;60.83
58668;BME280;59852;43.086;25.634;2023-02-02T06:24:08;98839.75;;;4.55;61.09
58668;BME280;59852;43.086;25.634;2023-02-02T06:26:33;98843.44;;;4.31;61.93
58668;BME280;59852;43.086;25.634;2023-02-02T06:28:59;98845.09;;;4.13;63.15
58668;BME280;59852;43.086;25.634;2023-02-02T06:31:24;98843.78;;;4.23;62.90
58668;BME280;59852;43.086;25.634;2023-02-02T06:33:54;98838.19;;;3.93;62.84
58668;BME280;59852;43.086;25.634;2023-02-02T06:36:19;98841.13;;;4.25;62.04
58668;BME280;59852;43.086;25.634;2023-02-02T06:38:48;98836.66;;;4.47;62.15
58668;BME280;59852;43.086;25.634;2023-02-02T06:41:14;98838.91;;;4.36;62.34
58668;BME280;59852;43.086;25.634;2023-02-02T06:43:39;98838.00;;;4.37;61.97
58668;BME280;59852;43.086;25.634;2023-02-02T06:46:05;98843.16;;;4.37;62.18
58668;BME280;59852;43.086;25.634;2023-02-02T06:48:30;98848.38;;;4.56;62.52
58668;BME280;59852;43.086;25.634;2023-02-02T06:50:58;98843.94;;;4.77;60.56
58668;BME280;59852;43.086;25.634;2023-02-02T06:53:25;98832.25;;;5.94;54.21
58668;BME280;59852;43.086;25.634;2023-02-02T06:55:57;98840.75;;;5.44;57.79
58668;BME280;59852;43.086;25.634;2023-02-02T06:58:23;98844.19;;;5.08;58.77
58668;BME280;59852;43.086;25.634;2023-02-02T07:00:49;98837.84;;;5.33;57.66
58668;BME280;59852;43.086;25.634;2023-02-02T07:03:14;98848.69;;;7.54;51.74
58668;BME280;59852;43.086;25.634;2023-02-02T07:05:40;98847.50;;;6.98;51.12
58668;BME280;59852;43.086;25.634;2023-02-02T07:08:05;98840.34;;;7.63;50.09
58668;BME280;59852;43.086;25.634;2023-02-02T07:10:31;98847.94;;;8.69;45.93
58668;BME280;59852;43.086;25.634;2023-02-02T07:12:56;98846.97;;;7.38;49.21
58668;BME280;59852;43.086;25.634;2023-02-02T07:15:21;98855.09;;;6.53;50.99
58668;BME280;59852;43.086;25.634;2023-02-02T07:17:47;98863.28;;;6.46;52.35
58668;BME280;59852;43.086;25.634;2023-02-02T07:20:12;98863.84;;;7.31;51.21
58668;BME280;59852;43.086;25.634;2023-02-02T07:22:38;98856.25;;;10.21;44.07
58668;BME280;59852;43.086;25.634;2023-02-02T07:25:03;98859.56;;;9.18;44.53
58668;BME280;59852;43.086;25.634;2023-02-02T07:27:29;98860.84;;;11.18;40.39
58668;BME280;59852;43.086;25.634;2023-02-02T07:29:54;98860.59;;;12.50;39.24
58668;BME280;59852;43.086;25.634;2023-02-02T07:32:19;98861.19;;;11.37;39.03
58668;BME280;59852;43.086;25.634;2023-02-02T07:34:45;98858.88;;;13.28;36.93
58668;BME280;59852;43.086;25.634;2023-02-02T07:37:10;98855.03;;;15.08;33.35
58668;BME280;59852;43.086;25.634;2023-02-02T07:39:35;98861.59;;;17.49;29.38
58668;BME280;59852;43.086;25.634;2023-02-02T07:42:01;98864.00;;;14.96;32.56
58668;BME280;59852;43.086;25.634;2023-02-02T07:44:26;98862.22;;;15.85;31.26
58668;BME280;59852;43.086;25.634;2023-02-02T07:46:51;98858.59;;;16.05;31.96
58668;BME280;59852;43.086;25.634;2023-02-02T07:49:17;98866.38;;;17.64;28.35
58668;BME280;59852;43.086;25.634;2023-02-02T07:51:42;98862.72;;;14.09;32.27
58668;BME280;59852;43.086;25.634;2023-02-02T07:54:09;98867.66;;;14.74;33.75
58668;BME280;59852;43.086;25.634;2023-02-02T07:56:35;98865.53;;;14.99;32.62
58668;BME280;59852;43.086;25.634;2023-02-02T07:59:01;98858.09;;;12.71;36.25
58668;BME280;59852;43.086;25.634;2023-02-02T08:01:26;98867.19;;;11.27;39.29
58668;BME280;59852;43.086;25.634;2023-02-02T08:03:53;98867.13;;;8.68;44.36
58668;BME280;59852;43.086;25.634;2023-02-02T08:06:20;98870.66;;;8.52;45.19
58668;BME280;59852;43.086;25.634;2023-02-02T08:08:46;98868.50;;;9.56;43.38
58668;BME280;59852;43.086;25.634;2023-02-02T08:11:12;98864.66;;;8.08;46.66
58668;BME280;59852;43.086;25.634;2023-02-02T08:13:38;98874.84;;;7.66;48.26
58668;BME280;59852;43.086;25.634;2023-02-02T08:16:04;98869.47;;;7.39;49.03
58668;BME280;59852;43.086;25.634;2023-02-02T08:18:29;98870.47;;;7.67;48.42
58668;BME280;59852;43.086;25.634;2023-02-02T08:20:58;98874.84;;;8.55;46.14
58668;BME280;59852;43.086;25.634;2023-02-02T08:23:24;98873.13;;;7.81;47.65
58668;BME280;59852;43.086;25.634;2023-02-02T08:25:49;98880.47;;;7.74;47.35
58668;BME280;59852;43.086;25.634;2023-02-02T08:28:15;98871.03;;;8.60;45.69
58668;BME280;59852;43.086;25.634;2023-02-02T08:30:41;98875.94;;;8.65;44.39
58668;BME280;59852;43.086;25.634;2023-02-02T08:33:06;98872.47;;;10.77;40.82
58668;BME280;59852;43.086;25.634;2023-02-02T08:35:31;98869.13;;;9.59;41.63
58668;BME280;59852;43.086;25.634;2023-02-02T08:37:57;98857.47;;;15.79;31.92
58668;BME280;59852;43.086;25.634;2023-02-02T08:40:22;98858.94;;;11.92;37.11
58668;BME280;59852;43.086;25.634;2023-02-02T08:42:51;98859.72;;;13.28;34.75
58668;BME280;59852;43.086;25.634;2023-02-02T08:45:17;98857.59;;;12.32;36.83
58668;BME280;59852;43.086;25.634;2023-02-02T08:47:42;98864.31;;;10.18;40.00
58668;BME280;59852;43.086;25.634;2023-02-02T08:50:08;98858.44;;;9.49;42.22
58668;BME280;59852;43.086;25.634;2023-02-02T08:52:33;98852.25;;;9.77;42.27
58668;BME280;59852;43.086;25.634;2023-02-02T08:54:58;98847.03;;;9.38;42.52
58668;BME280;59852;43.086;25.634;2023-02-02T08:57:24;98839.75;;;9.16;42.99
58668;BME280;59852;43.086;25.634;2023-02-02T08:59:49;98837.56;;;8.96;42.65
58668;BME280;59852;43.086;25.634;2023-02-02T09:02:14;98837.88;;;9.45;43.32
58668;BME280;59852;43.086;25.634;2023-02-02T09:04:40;98826.94;;;9.26;42.84
58668;BME280;59852;43.086;25.634;2023-02-02T09:07:09;98834.19;;;9.35;42.53
58668;BME280;59852;43.086;25.634;2023-02-02T09:09:34;98829.78;;;9.35;42.69
58668;BME280;59852;43.086;25.634;2023-02-02T09:11:59;98823.06;;;9.31;42.64
58668;BME280;59852;43.086;25.634;2023-02-02T09:14:25;98811.56;;;9.21;42.71
58668;BME280;59852;43.086;25.634;2023-02-02T09:16:50;98810.63;;;8.95;43.38
58668;BME280;59852;43.086;25.634;2023-02-02T09:19:15;98814.91;;;8.96;43.10
58668;BME280;59852;43.086;25.634;2023-02-02T09:21:41;98815.09;;;8.93;42.47
58668;BME280;59852;43.086;25.634;2023-02-02T09:24:07;98815.50;;;8.73;43.23
58668;BME280;59852;43.086;25.634;2023-02-02T09:26:32;98821.56;;;9.14;43.11
58668;BME280;59852;43.086;25.634;2023-02-02T09:28:59;98817.44;;;9.25;43.28
58668;BME280;59852;43.086;25.634;2023-02-02T09:31:29;98810.38;;;9.12;42.18
58668;BME280;59852;43.086;25.634;2023-02-02T09:33:58;98814.06;;;9.23;42.96
58668;BME280;59852;43.086;25.634;2023-02-02T09:36:23;98808.31;;;9.17;42.24
58668;BME280;59852;43.086;25.634;2023-02-02T09:38:51;98812.50;;;9.20;41.97
58668;BME280;59852;43.086;25.634;2023-02-02T09:49:05;98804.13;;;8.88;42.24
58668;BME280;59852;43.086;25.634;2023-02-02T09:51:34;98801.78;;;8.83;42.83
58668;BME280;59852;43.086;25.634;2023-02-02T09:54:04;98804.13;;;8.88;41.75
58668;BME280;59852;43.086;25.634;2023-02-02T09:56:42;98797.19;;;9.01;42.14
58668;BME280;59852;43.086;25.634;2023-02-02T09:59:14;98799.75;;;8.88;42.27
58668;BME280;59852;43.086;25.634;2023-02-02T10:01:41;98798.59;;;8.66;43.09
58668;BME280;59852;43.086;25.634;2023-02-02T10:04:20;98788.06;;;8.53;43.93
58668;BME280;59852;43.086;25.634;2023-02-02T10:06:48;98784.94;;;8.48;42.71
58668;BME280;59852;43.086;25.634;2023-02-02T10:14:37;98775.19;;;8.64;41.67
58668;BME280;59852;43.086;25.634;2023-02-02T10:17:13;98770.75;;;8.66;42.60
58668;BME280;59852;43.086;25.634;2023-02-02T10:19:42;98766.91;;;8.72;41.93
58668;BME280;59852;43.086;25.634;2023-02-02T10:22:10;98763.25;;;8.74;41.64
58668;BME280;59852;43.086;25.634;2023-02-02T10:24:39;98754.81;;;8.71;42.29
58668;BME280;59852;43.086;25.634;2023-02-02T10:27:07;98749.34;;;8.88;42.96
58668;BME280;59852;43.086;25.634;2023-02-02T10:29:38;98751.13;;;8.87;41.88
58668;BME280;59852;43.086;25.634;2023-02-02T10:32:15;98742.31;;;8.76;40.43
58668;BME280;59852;43.086;25.634;2023-02-02T10:37:25;98750.22;;;8.74;41.30
58668;BME280;59852;43.086;25.634;2023-02-02T10:45:13;98735.13;;;8.79;40.57
58668;BME280;59852;43.086;25.634;2023-02-02T10:47:40;98726.03;;;8.99;40.91
58668;BME280;59852;43.086;25.634;2023-02-02T10:52:36;98710.13;;;8.89;39.98
58668;BME280;59852;43.086;25.634;2023-02-02T10:55:13;98716.53;;;8.98;39.87
58668;BME280;59852;43.086;25.634;2023-02-02T11:00:40;98709.75;;;8.96;39.06
58668;BME280;59852;43.086;25.634;2023-02-02T11:03:09;98696.88;;;8.93;39.24
58668;BME280;59852;43.086;25.634;2023-02-02T11:05:36;98701.56;;;8.87;39.46
58668;BME280;59852;43.086;25.634;2023-02-02T11:08:21;98684.53;;;8.82;38.93
58668;BME280;59852;43.086;25.634;2023-02-02T11:10:51;98693.91;;;9.11;39.03
58668;BME280;59852;43.086;25.634;2023-02-02T11:13:32;98688.50;;;9.14;39.63
58668;BME280;59852;43.086;25.634;2023-02-02T11:18:39;98678.34;;;9.23;39.85
58668;BME280;59852;43.086;25.634;2023-02-02T11:21:15;98676.06;;;9.18;39.62
58668;BME280;59852;43.086;25.634;2023-02-02T11:23:49;98660.84;;;9.25;39.24
58668;BME280;59852;43.086;25.634;2023-02-02T11:26:15;98650.09;;;9.16;39.18
58668;BME280;59852;43.086;25.634;2023-02-02T11:28:40;98663.31;;;9.01;39.49
58668;BME280;59852;43.086;25.634;2023-02-02T11:31:05;98655.97;;;8.93;39.25
58668;BME280;59852;43.086;25.634;2023-02-02T11:33:32;98655.88;;;8.95;40.25
58668;BME280;59852;43.086;25.634;2023-02-02T11:36:04;98645.16;;;8.99;39.39
58668;BME280;59852;43.086;25.634;2023-02-02T11:38:30;98654.53;;;8.89;39.75
58668;BME280;59852;43.086;25.634;2023-02-02T11:40:56;98644.19;;;8.87;39.17
58668;BME280;59852;43.086;25.634;2023-02-02T11:46:12;98631.06;;;9.02;39.79
58668;BME280;59852;43.086;25.634;2023-02-02T11:48:45;98624.91;;;9.03;40.59
58668;BME280;59852;43.086;25.634;2023-02-02T11:51:12;98617.63;;;9.08;39.58
58668;BME280;59852;43.086;25.634;2023-02-02T11:53:45;98615.94;;;9.19;40.48
58668;BME280;59852;43.086;25.634;2023-02-02T11:56:22;98611.06;;;9.15;39.53
58668;BME280;59852;43.086;25.634;2023-02-02T11:58:49;98600.50;;;9.16;39.79
58668;BME280;59852;43.086;25.634;2023-02-02T12:03:47;98603.84;;;9.18;39.10
58668;BME280;59852;43.086;25.634;2023-02-02T12:06:16;98590.03;;;9.04;39.29
58668;BME280;59852;43.086;25.634;2023-02-02T12:08:42;98600.28;;;9.07;39.46
58668;BME280;59852;43.086;25.634;2023-02-02T12:11:07;98593.69;;;9.01;40.39
58668;BME280;59852;43.086;25.634;2023-02-02T12:13:48;98607.06;;;9.09;40.17
58668;BME280;59852;43.086;25.634;2023-02-02T12:16:23;98599.56;;;9.05;41.04
58668;BME280;59852;43.086;25.634;2023-02-02T12:26:35;98603.56;;;8.71;41.53
58668;BME280;59852;43.086;25.634;2023-02-02T12:34:16;98639.97;;;8.45;42.62
58668;BME280;59852;43.086;25.634;2023-02-02T12:39:30;98701.00;;;7.57;50.12
58668;BME280;59852;43.086;25.634;2023-02-02T12:44:43;98748.03;;;4.96;72.12
58668;BME280;59852;43.086;25.634;2023-02-02T12:52:21;98751.97;;;5.22;78.11
58668;BME280;59852;43.086;25.634;2023-02-02T12:57:21;98753.63;;;5.05;78.63
58668;BME280;59852;43.086;25.634;2023-02-02T13:07:47;98782.28;;;5.19;79.44
58668;BME280;59852;43.086;25.634;2023-02-02T13:12:51;98762.69;;;4.97;78.49
58668;BME280;59852;43.086;25.634;2023-02-02T13:15:19;98764.78;;;4.88;78.72
58668;BME280;59852;43.086;25.634;2023-02-02T13:17:46;98775.63;;;4.60;80.70
58668;BME280;59852;43.086;25.634;2023-02-02T13:22:45;98792.66;;;5.02;79.88
58668;BME280;59852;43.086;25.634;2023-02-02T13:25:46;98790.78;;;4.12;83.63
58668;BME280;59852;43.086;25.634;2023-02-02T13:28:03;98793.69;;;4.43;83.40
58668;BME280;59852;43.086;25.634;2023-02-02T13:30:31;98799.34;;;4.14;83.43
58668;BME280;59852;43.086;25.634;2023-02-02T13:33:03;98804.69;;;4.48;84.18
58668;BME280;59852;43.086;25.634;2023-02-02T13:35:34;98810.84;;;4.65;82.03
58668;BME280;59852;43.086;25.634;2023-02-02T13:41:06;98836.50;;;3.72;84.97
58668;BME280;59852;43.086;25.634;2023-02-02T13:51:21;98856.19;;;3.96;82.72
58668;BME280;59852;43.086;25.634;2023-02-02T13:56:42;98857.56;;;3.83;83.70
58668;BME280;59852;43.086;25.634;2023-02-02T14:01:39;98845.44;;;3.85;83.53
58668;BME280;59852;43.086;25.634;2023-02-02T14:04:15;98851.25;;;3.90;82.56
58668;BME280;59852;43.086;25.634;2023-02-02T14:06:53;98848.78;;;3.47;85.94
58668;BME280;59852;43.086;25.634;2023-02-02T14:09:20;98861.72;;;3.47;83.80
58668;BME280;59852;43.086;25.634;2023-02-02T14:12:07;98853.81;;;4.11;81.07
58668;BME280;59852;43.086;25.634;2023-02-02T14:14:34;98848.28;;;3.16;82.96
58668;BME280;59852;43.086;25.634;2023-02-02T14:22:03;98848.50;;;3.10;83.66
58668;BME280;59852;43.086;25.634;2023-02-02T14:26:59;98854.81;;;3.25;84.09
58668;BME280;59852;43.086;25.634;2023-02-02T14:31:54;98830.41;;;3.10;85.18
58668;BME280;59852;43.086;25.634;2023-02-02T14:34:27;98819.44;;;3.05;84.66
58668;BME280;59852;43.086;25.634;2023-02-02T14:39:27;98819.47;;;3.04;84.05
58668;BME280;59852;43.086;25.634;2023-02-02T14:42:06;98840.84;;;3.29;83.56
58668;BME280;59852;43.086;25.634;2023-02-02T14:47:51;98828.16;;;3.23;84.09
58668;BME280;59852;43.086;25.634;2023-02-02T14:50:21;98819.03;;;2.93;84.68
58668;BME280;59852;43.086;25.634;2023-02-02T14:55:32;98807.72;;;3.39;82.58
58668;BME280;59852;43.086;25.634;2023-02-02T14:58:00;98800.28;;;3.52;81.82
58668;BME280;59852;43.086;25.634;2023-02-02T15:00:30;98802.09;;;3.50;81.57
58668;BME280;59852;43.086;25.634;2023-02-02T15:03:19;98811.50;;;3.30;81.94
58668;BME280;59852;43.086;25.634;2023-02-02T15:05:42;98832.59;;;3.41;80.32
58668;BME280;59852;43.086;25.634;2023-02-02T15:08:19;98831.00;;;3.59;79.75
58668;BME280;59852;43.086;25.634;2023-02-02T15:13:21;98835.38;;;2.93;82.03
58668;BME280;59852;43.086;25.634;2023-02-02T15:15:48;98815.56;;;3.15;81.27
58668;BME280;59852;43.086;25.634;2023-02-02T15:18:20;98806.50;;;3.68;79.96
58668;BME280;59852;43.086;25.634;2023-02-02T15:20:48;98801.66;;;3.60;80.16